Time;durP1;ratioP1;P1;durP2;ratioP2;P2;SDS_P1;SDS_P2;PMS_P1;PMS_P2;Temp;Humidity;BMP_temperature;BMP_pressure;BME280_temperature;BME280_humidity;BME280_pressure;Samples;Min_cycle;Max_cycle;Signal;HPM_P1;HPM_P2
2021/06/26 09:13:57;;;;;;;11.15;4.82;;;;;;;;;;5055681;27;2895534;-43
2021/06/26 09:16:22;;;;;;;15.38;5.53;;;;;;;;;;5132235;28;20045;-40
2021/06/26 09:18:50;;;;;;;31.63;6.57;;;;;;;;;;5133388;28;20442;-41
2021/06/26 09:29:34;;;;;;;148.48;13.50;;;;;;;;;;5113513;27;20780;-51
2021/06/26 09:33:57;;;;;;;14.20;4.15;;;;;;;;;;5112974;27;20373;-55
2021/06/26 09:36:30;;;;;;;22.95;4.93;;;;;;;;;;5112663;28;20119;-49
2021/06/26 09:39:01;;;;;;;12.43;4.30;;;;;;;;;;5111563;28;20066;-45
2021/06/26 09:41:28;;;;;;;19.60;4.85;;;;;;;;;;5111343;28;20069;-45
2021/06/26 09:43:54;;;;;;;21.00;4.97;;;;;;;;;;5112536;28;20020;-51
2021/06/26 09:46:21;;;;;;;14.60;4.65;;;;;;;;;;5113603;28;20042;-41
2021/06/26 09:48:48;;;;;;;22.27;4.35;;;;;;;;;;5113684;28;20031;-48
2021/06/26 09:51:32;;;;;;;18.98;5.53;;;;;;;;;;5113439;28;20027;-49
2021/06/26 09:54:00;;;;;;;10.30;4.40;;;;;;;;;;5113610;28;20028;-46
2021/06/26 09:56:45;;;;;;;12.38;4.15;;;;;;;;;;5112268;28;20527;-46
2021/06/26 09:59:12;;;;;;;16.65;4.00;;;;;;;;;;5112405;28;20034;-45
2021/06/26 10:01:44;;;;;;;16.63;4.78;;;;;;;;;;5112728;28;20020;-48
2021/06/26 10:06:46;;;;;;;19.25;7.43;;;;;;;;;;5114112;27;20860;-61
2021/06/26 10:09:14;;;;;;;17.77;4.88;;;;;;;;;;5112422;28;20032;-60
2021/06/26 10:21:01;;;;;;;14.38;4.70;;;;;;;;;;5088416;28;20384;-61
2021/06/26 10:28:08;;;;;;;18.33;4.53;;;;;;;;;;5030398;27;58438;-57
2021/06/26 10:30:35;;;;;;;21.63;5.90;;;;;;;;;;5045305;28;20045;-56
2021/06/26 10:33:03;;;;;;;15.20;4.97;;;;;;;;;;5048897;28;20451;-54
2021/06/26 10:35:31;;;;;;;14.65;6.70;;;;;;;;;;5045882;28;63875;-59
2021/06/26 10:38:02;;;;;;;13.18;4.43;;;;;;;;;;5048445;28;20045;-60
2021/06/26 10:40:44;;;;;;;17.00;4.68;;;;;;;;;;5047853;28;20068;-61
2021/06/26 10:43:29;;;;;;;17.77;6.75;;;;;;;;;;5048495;28;20068;-63
2021/06/26 10:50:23;;;;;;;10.02;2.47;;;;;;;;;;4844528;27;8552863;-83
2021/06/26 10:53:00;;;;;;;11.20;3.47;;;;;;;;;;5125690;27;20020;-84
2021/06/26 10:55:38;;;;;;;7.00;2.25;;;;;;;;;;5120392;28;20024;-85
2021/06/26 10:58:07;;;;;;;11.90;4.55;;;;;;;;;;5139358;28;20027;-85
2021/06/26 11:00:37;;;;;;;9.68;2.28;;;;;;;;;;5131791;27;20027;-87
2021/06/26 11:03:06;;;;;;;9.45;3.28;;;;;;;;;;5120175;28;20024;-84
2021/06/26 11:05:35;;;;;;;8.30;3.22;;;;;;;;;;5119478;28;20028;-85
2021/06/26 11:08:26;;;;;;;7.43;2.00;;;;;;;;;;5120646;28;20003;-85
2021/06/26 11:11:00;;;;;;;8.27;2.20;;;;;;;;;;5127321;28;20022;-86
2021/06/26 11:13:28;;;;;;;9.27;3.13;;;;;;;;;;5122894;28;20000;-86
2021/06/26 11:16:18;;;;;;;8.23;2.30;;;;;;;;;;5129564;27;20020;-86
2021/06/26 11:18:53;;;;;;;8.23;4.40;;;;;;;;;;5141145;27;20027;-85
2021/06/26 11:21:20;;;;;;;14.23;3.13;;;;;;;;;;5140318;27;20019;-85
2021/06/26 11:23:53;;;;;;;8.20;2.88;;;;;;;;;;5142594;27;20020;-86
2021/06/26 11:26:19;;;;;;;10.02;3.03;;;;;;;;;;5132080;28;20090;-85
2021/06/26 11:28:44;;;;;;;8.50;1.75;;;;;;;;;;5129517;27;20019;-85
2021/06/26 11:31:11;;;;;;;10.68;2.53;;;;;;;;;;5129616;28;20038;-85
2021/06/26 11:33:42;;;;;;;10.85;3.28;;;;;;;;;;5128270;28;20019;-84
2021/06/26 11:36:10;;;;;;;9.00;2.13;;;;;;;;;;5130015;27;20024;-85
2021/06/26 11:38:36;;;;;;;7.40;4.32;;;;;;;;;;5129463;27;20035;-85
2021/06/26 11:41:10;;;;;;;7.90;1.60;;;;;;;;;;5129490;27;20034;-85
2021/06/26 11:43:38;;;;;;;8.20;1.73;;;;;;;;;;5130981;27;20076;-84
2021/06/26 11:46:05;;;;;;;8.02;1.52;;;;;;;;;;5131216;27;20015;-85
2021/06/26 11:48:31;;;;;;;7.82;1.52;;;;;;;;;;5130848;27;20051;-85
2021/06/26 11:51:04;;;;;;;9.23;1.88;;;;;;;;;;5132470;27;20024;-88
2021/06/26 11:53:31;;;;;;;7.78;1.40;;;;;;;;;;5130189;28;20020;-84
2021/06/26 11:55:59;;;;;;;10.10;3.00;;;;;;;;;;5131223;27;20386;-88
2021/06/26 11:58:46;;;;;;;7.28;2.83;;;;;;;;;;5130976;27;20034;-89
2021/06/26 12:01:24;;;;;;;5.53;1.17;;;;;;;;;;5120354;28;20034;-88
2021/06/26 12:03:50;;;;;;;8.30;2.47;;;;;;;;;;5116366;28;20386;-88
2021/06/26 12:06:17;;;;;;;10.15;2.70;;;;;;;;;;5117361;28;20031;-88
2021/06/26 12:08:53;;;;;;;7.63;1.42;;;;;;;;;;5115873;28;20034;-89
2021/06/26 12:11:23;;;;;;;10.88;2.22;;;;;;;;;;5118012;28;20020;-88
2021/06/26 12:13:52;;;;;;;10.32;1.55;;;;;;;;;;5117020;28;20024;-88
2021/06/26 12:16:23;;;;;;;8.30;1.65;;;;;;;;;;5116537;28;20036;-88
2021/06/26 12:19:01;;;;;;;8.07;2.20;;;;;;;;;;5118396;28;20035;-88
2021/06/26 12:21:38;;;;;;;8.50;2.22;;;;;;;;;;5116750;28;20035;-90
2021/06/26 12:24:05;;;;;;;9.48;1.40;;;;;;;;;;5116709;28;20034;-89
2021/06/26 12:26:31;;;;;;;8.07;2.33;;;;;;;;;;5117218;28;20352;-88
2021/06/26 12:28:57;;;;;;;5.45;1.25;;;;;;;;;;5116841;28;20031;-90
2021/06/26 12:31:25;;;;;;;11.02;1.65;;;;;;;;;;5115394;28;20020;-90
2021/06/26 12:34:04;;;;;;;7.70;3.50;;;;;;;;;;5116401;28;20012;-90
2021/06/26 12:36:30;;;;;;;8.10;2.35;;;;;;;;;;5116857;28;20026;-91
2021/06/26 12:38:57;;;;;;;8.02;1.38;;;;;;;;;;5116945;28;20028;-93
2021/06/26 12:41:30;;;;;;;6.88;1.15;;;;;;;;;;5115437;28;20024;-93
2021/06/26 12:43:58;;;;;;;6.85;3.75;;;;;;;;;;5115934;28;20053;-93
2021/06/26 12:46:26;;;;;;;5.90;1.10;;;;;;;;;;5116720;28;20106;-92
2021/06/26 12:48:58;;;;;;;9.57;1.52;;;;;;;;;;5115366;28;20515;-92
2021/06/26 12:51:51;;;;;;;7.88;1.42;;;;;;;;;;5116613;28;20038;-92
2021/06/26 12:54:17;;;;;;;8.30;1.42;;;;;;;;;;5111755;28;20040;-94
2021/06/26 12:56:47;;;;;;;7.93;3.63;;;;;;;;;;5116060;28;20024;-93
2021/06/26 12:59:15;;;;;;;7.47;3.47;;;;;;;;;;5116488;28;20532;-93
2021/06/26 13:01:50;;;;;;;9.88;1.63;;;;;;;;;;5114857;28;20040;-89
2021/06/26 13:04:23;;;;;;;9.55;3.67;;;;;;;;;;5115966;28;20055;-92
2021/06/26 13:06:52;;;;;;;7.65;2.90;;;;;;;;;;5107992;28;20122;-91
2021/06/26 13:09:30;;;;;;;7.72;1.58;;;;;;;;;;5104201;28;20420;-91
2021/06/26 13:11:55;;;;;;;6.93;2.10;;;;;;;;;;5113445;28;20051;-90
2021/06/26 13:14:21;;;;;;;9.93;1.38;;;;;;;;;;5111578;28;20453;-90
2021/06/26 13:16:49;;;;;;;9.02;1.20;;;;;;;;;;5108076;28;20020;-92
2021/06/26 13:19:16;;;;;;;10.10;1.48;;;;;;;;;;5104849;28;20386;-91
2021/06/26 13:21:51;;;;;;;6.90;2.97;;;;;;;;;;5119886;28;20112;-90
2021/06/26 13:24:20;;;;;;;9.45;1.27;;;;;;;;;;5110379;28;20470;-89
2021/06/26 13:26:45;;;;;;;10.45;2.83;;;;;;;;;;5116191;28;20180;-91
2021/06/26 13:29:11;;;;;;;9.65;2.85;;;;;;;;;;5118009;28;20494;-90
2021/06/26 13:31:38;;;;;;;10.32;3.35;;;;;;;;;;5110575;28;20128;-90
2021/06/26 13:34:04;;;;;;;10.32;3.53;;;;;;;;;;5115773;28;20028;-92
2021/06/26 13:36:30;;;;;;;8.48;2.58;;;;;;;;;;5100203;28;20031;-93
2021/06/26 13:38:56;;;;;;;8.40;1.45;;;;;;;;;;5093775;28;20020;-85
2021/06/26 13:41:22;;;;;;;8.20;2.67;;;;;;;;;;5093199;28;20024;-86
2021/06/26 13:43:48;;;;;;;9.15;1.02;;;;;;;;;;5093290;28;20024;-87
2021/06/26 13:46:14;;;;;;;7.18;1.15;;;;;;;;;;5093195;28;20024;-86
2021/06/26 13:48:40;;;;;;;7.43;1.10;;;;;;;;;;5093226;28;20495;-86
2021/06/26 13:51:06;;;;;;;10.25;0.93;;;;;;;;;;5094517;28;20081;-86
2021/06/26 13:53:31;;;;;;;9.05;1.13;;;;;;;;;;5094880;28;20051;-84
2021/06/26 13:55:57;;;;;;;6.80;1.48;;;;;;;;;;5094608;28;20375;-85
2021/06/26 13:58:23;;;;;;;6.30;1.13;;;;;;;;;;5094308;28;20032;-84
2021/06/26 14:00:49;;;;;;;8.02;2.20;;;;;;;;;;5094626;28;20039;-84
2021/06/26 14:03:16;;;;;;;10.48;1.00;;;;;;;;;;5095517;28;20072;-85
2021/06/26 14:05:42;;;;;;;8.00;3.33;;;;;;;;;;5094976;28;20028;-84
2021/06/26 14:08:09;;;;;;;7.63;1.48;;;;;;;;;;5094845;28;20042;-85
2021/06/26 14:10:36;;;;;;;9.00;3.75;;;;;;;;;;5094680;28;20024;-84
2021/06/26 14:13:02;;;;;;;11.77;2.22;;;;;;;;;;5094295;28;20054;-86
2021/06/26 14:15:28;;;;;;;12.10;2.95;;;;;;;;;;5094874;28;20103;-85
2021/06/26 14:17:54;;;;;;;6.15;2.88;;;;;;;;;;5095696;28;20052;-85
2021/06/26 14:20:20;;;;;;;5.25;0.75;;;;;;;;;;5094719;28;20490;-85
2021/06/26 14:22:46;;;;;;;12.63;3.22;;;;;;;;;;5094076;28;20111;-84
2021/06/26 14:25:12;;;;;;;6.20;1.58;;;;;;;;;;5094192;28;20544;-85
2021/06/26 14:27:38;;;;;;;10.07;3.03;;;;;;;;;;5094394;28;20028;-85
2021/06/26 14:30:07;;;;;;;5.88;1.15;;;;;;;;;;5094073;28;20028;-85
2021/06/26 14:32:33;;;;;;;10.88;1.17;;;;;;;;;;5093145;28;20024;-87
2021/06/26 14:34:59;;;;;;;10.30;1.90;;;;;;;;;;5094347;28;20383;-85
2021/06/26 14:37:25;;;;;;;8.15;1.50;;;;;;;;;;5093765;28;20020;-85
2021/06/26 14:39:51;;;;;;;11.68;1.48;;;;;;;;;;5093790;28;20016;-85
2021/06/26 14:42:20;;;;;;;7.25;1.23;;;;;;;;;;5093838;28;20349;-85
2021/06/26 14:44:47;;;;;;;10.05;2.90;;;;;;;;;;5093765;28;20107;-85
2021/06/26 14:47:13;;;;;;;7.30;3.35;;;;;;;;;;5094003;28;20016;-85
2021/06/26 14:49:39;;;;;;;5.00;1.10;;;;;;;;;;5093310;28;20062;-85
2021/06/26 14:52:05;;;;;;;14.90;3.03;;;;;;;;;;5093744;28;20024;-84
2021/06/26 14:54:31;;;;;;;7.55;1.00;;;;;;;;;;5092436;28;20025;-86
2021/06/26 14:56:57;;;;;;;10.05;1.27;;;;;;;;;;5093821;28;20481;-85
2021/06/26 14:59:22;;;;;;;5.68;0.77;;;;;;;;;;5093910;28;20034;-86
2021/06/26 15:01:48;;;;;;;10.63;3.22;;;;;;;;;;5094222;28;20486;-86
2021/06/26 15:04:14;;;;;;;9.15;2.80;;;;;;;;;;5093751;28;20026;-86
2021/06/26 15:06:40;;;;;;;10.18;1.88;;;;;;;;;;5093534;28;20020;-86
2021/06/26 15:09:06;;;;;;;7.28;0.80;;;;;;;;;;5093572;28;20028;-86
2021/06/26 15:11:32;;;;;;;11.88;1.38;;;;;;;;;;5094379;28;20043;-86
2021/06/26 15:14:01;;;;;;;8.80;1.30;;;;;;;;;;5119103;28;20030;-87
2021/06/26 15:16:27;;;;;;;;;;;;;;;;;;5127150;28;20439;-87
2021/06/26 15:18:53;;;;;;;7.97;1.40;;;;;;;;;;5120732;28;19916;-86
2021/06/26 15:21:19;;;;;;;8.02;2.67;;;;;;;;;;5113380;28;20053;-88
2021/06/26 15:23:46;;;;;;;11.85;1.33;;;;;;;;;;5106585;28;20040;-85
2021/06/26 15:26:11;;;;;;;8.00;1.80;;;;;;;;;;5103150;28;20023;-87
2021/06/26 15:28:37;;;;;;;7.80;0.95;;;;;;;;;;5108295;28;20023;-86
2021/06/26 15:31:03;;;;;;;13.60;1.00;;;;;;;;;;5113083;28;20049;-87
2021/06/26 15:33:29;;;;;;;7.80;0.95;;;;;;;;;;5102106;28;20051;-87
2021/06/26 15:35:55;;;;;;;6.25;0.93;;;;;;;;;;5104784;28;20020;-86
2021/06/26 15:38:24;;;;;;;12.52;1.05;;;;;;;;;;5114916;28;20038;-86
2021/06/26 15:40:54;;;;;;;12.43;1.55;;;;;;;;;;5114906;28;20024;-89
2021/06/26 15:43:20;;;;;;;8.90;1.13;;;;;;;;;;5116294;28;20031;-89
2021/06/26 15:45:50;;;;;;;8.40;1.38;;;;;;;;;;5110707;28;20404;-86
2021/06/26 15:48:16;;;;;;;9.40;2.58;;;;;;;;;;5118097;28;20081;-87
2021/06/26 15:50:50;;;;;;;12.00;1.13;;;;;;;;;;5120732;27;20035;-87
2021/06/26 15:53:15;;;;;;;8.88;1.95;;;;;;;;;;5101186;28;20024;-87
2021/06/26 15:55:41;;;;;;;10.27;2.63;;;;;;;;;;5117103;28;20043;-86
2021/06/26 15:58:12;;;;;;;10.73;3.80;;;;;;;;;;5115922;28;20050;-86
2021/06/26 16:00:37;;;;;;;13.75;1.48;;;;;;;;;;5117656;28;20045;-87
2021/06/26 16:03:03;;;;;;;9.77;1.63;;;;;;;;;;5116943;28;20028;-86
2021/06/26 16:05:29;;;;;;;11.40;2.40;;;;;;;;;;5118293;28;20020;-86
2021/06/26 16:07:54;;;;;;;10.52;2.28;;;;;;;;;;5117501;28;20026;-87
2021/06/26 16:10:20;;;;;;;9.65;1.45;;;;;;;;;;5118040;28;20096;-86
2021/06/26 16:12:46;;;;;;;10.40;1.67;;;;;;;;;;5119996;28;20467;-86
2021/06/26 16:15:13;;;;;;;12.35;3.65;;;;;;;;;;5118086;28;20020;-86
2021/06/26 16:17:39;;;;;;;11.52;1.42;;;;;;;;;;5118361;28;20023;-88
2021/06/26 16:20:07;;;;;;;12.60;3.08;;;;;;;;;;5118767;28;20110;-86
2021/06/26 16:22:33;;;;;;;9.75;2.45;;;;;;;;;;5114033;28;20024;-87
2021/06/26 16:25:00;;;;;;;9.95;2.22;;;;;;;;;;5096440;28;20031;-87
2021/06/26 16:27:26;;;;;;;12.85;2.17;;;;;;;;;;5094996;28;20054;-87
2021/06/26 16:29:51;;;;;;;14.32;4.55;;;;;;;;;;5094895;28;20028;-87
2021/06/26 16:32:18;;;;;;;7.50;1.02;;;;;;;;;;5094998;28;20375;-87
2021/06/26 16:34:43;;;;;;;11.10;2.85;;;;;;;;;;5094771;28;20471;-87
2021/06/26 16:37:09;;;;;;;10.45;1.85;;;;;;;;;;5095995;28;20074;-87
2021/06/26 16:39:45;;;;;;;15.20;3.72;;;;;;;;;;5094674;28;20020;-88
2021/06/26 16:42:10;;;;;;;;;;;;;;;;;;5096388;28;20085;-87
2021/06/26 16:44:37;;;;;;;9.65;2.47;;;;;;;;;;5096392;28;20283;-87
2021/06/26 16:47:03;;;;;;;9.48;1.67;;;;;;;;;;5095945;28;20494;-86
2021/06/26 16:49:29;;;;;;;13.70;2.10;;;;;;;;;;5095854;28;20074;-86
2021/06/26 16:51:54;;;;;;;12.13;3.10;;;;;;;;;;5096333;28;20479;-91
2021/06/26 16:54:20;;;;;;;9.60;2.25;;;;;;;;;;5096171;28;20033;-88
2021/06/26 16:56:46;;;;;;;6.68;1.67;;;;;;;;;;5095536;28;20023;-85
2021/06/26 16:59:11;;;;;;;6.88;2.15;;;;;;;;;;5098237;28;20078;-86
2021/06/26 17:01:37;;;;;;;10.15;1.63;;;;;;;;;;5096914;28;20016;-92
2021/06/26 17:04:04;;;;;;;10.68;4.18;;;;;;;;;;5097700;28;20028;-87
2021/06/26 17:06:30;;;;;;;11.48;2.33;;;;;;;;;;5097384;28;20179;-89
2021/06/26 17:08:56;;;;;;;10.13;2.00;;;;;;;;;;5097946;28;20487;-86
2021/06/26 17:11:22;;;;;;;10.65;2.13;;;;;;;;;;5097173;28;20024;-87
2021/06/26 17:13:47;;;;;;;10.07;2.40;;;;;;;;;;5095569;28;20489;-89
2021/06/26 17:16:13;;;;;;;13.07;3.22;;;;;;;;;;5095063;28;20031;-87
2021/06/26 17:18:39;;;;;;;8.07;2.70;;;;;;;;;;5093734;28;20081;-88
2021/06/26 17:21:05;;;;;;;7.97;2.22;;;;;;;;;;5094992;28;20020;-88
2021/06/26 17:23:31;;;;;;;13.38;2.47;;;;;;;;;;5093789;28;20020;-85
2021/06/26 17:25:57;;;;;;;16.40;3.35;;;;;;;;;;5094840;28;20471;-88
2021/06/26 17:28:23;;;;;;;9.25;2.85;;;;;;;;;;5093494;28;20067;-88
2021/06/26 17:30:50;;;;;;;12.73;3.22;;;;;;;;;;5094121;28;20379;-87
2021/06/26 17:33:16;;;;;;;7.85;2.58;;;;;;;;;;5094999;28;20031;-88
2021/06/26 17:35:42;;;;;;;11.10;2.13;;;;;;;;;;5093515;28;20384;-86
2021/06/26 17:38:08;;;;;;;12.00;3.00;;;;;;;;;;5093379;28;20028;-87
2021/06/26 17:40:34;;;;;;;9.52;2.80;;;;;;;;;;5094772;28;20107;-87
2021/06/26 17:43:00;;;;;;;14.50;3.65;;;;;;;;;;5094684;28;20069;-88
2021/06/26 17:45:26;;;;;;;17.15;3.40;;;;;;;;;;5093528;28;20020;-87
2021/06/26 17:47:52;;;;;;;10.55;3.13;;;;;;;;;;5094494;28;20073;-83
2021/06/26 17:50:19;;;;;;;10.63;2.38;;;;;;;;;;5094172;28;20044;-86
2021/06/26 17:52:45;;;;;;;11.52;3.28;;;;;;;;;;5094331;28;20024;-85
2021/06/26 17:55:12;;;;;;;9.90;2.75;;;;;;;;;;5094431;28;20035;-85
2021/06/26 17:57:38;;;;;;;11.50;3.53;;;;;;;;;;5093069;28;20105;-85
2021/06/26 18:00:10;;;;;;;12.70;3.63;;;;;;;;;;5092850;28;20066;-85
2021/06/26 18:02:36;;;;;;;10.13;3.00;;;;;;;;;;5093098;28;20028;-85
2021/06/26 18:05:02;;;;;;;8.35;3.25;;;;;;;;;;5094273;28;20024;-86
2021/06/26 18:07:28;;;;;;;12.10;3.97;;;;;;;;;;5093319;28;20502;-85
2021/06/26 18:09:54;;;;;;;15.52;3.78;;;;;;;;;;5094295;28;20068;-84
2021/06/26 18:12:20;;;;;;;12.75;4.13;;;;;;;;;;5094854;28;20024;-86
2021/06/26 18:14:46;;;;;;;16.42;3.35;;;;;;;;;;5094672;28;20455;-86
2021/06/26 18:17:11;;;;;;;13.00;3.72;;;;;;;;;;5094197;28;20080;-85
2021/06/26 18:19:38;;;;;;;11.00;3.65;;;;;;;;;;5094961;28;20512;-84
2021/06/26 18:22:05;;;;;;;16.08;5.70;;;;;;;;;;5094123;28;20126;-84
2021/06/26 18:24:31;;;;;;;15.35;6.68;;;;;;;;;;5095562;28;20024;-85
2021/06/26 18:26:57;;;;;;;24.20;8.55;;;;;;;;;;5094278;28;20383;-86
2021/06/26 18:29:22;;;;;;;12.57;5.43;;;;;;;;;;5094772;28;20023;-85
2021/06/26 18:31:48;;;;;;;10.73;4.40;;;;;;;;;;5095318;28;20476;-84
2021/06/26 18:34:14;;;;;;;12.48;4.55;;;;;;;;;;5093941;28;20031;-87
2021/06/26 18:36:39;;;;;;;14.43;3.70;;;;;;;;;;5094101;28;20025;-86
2021/06/26 18:39:05;;;;;;;9.77;3.63;;;;;;;;;;5093786;28;20039;-87
2021/06/26 18:41:31;;;;;;;10.18;3.97;;;;;;;;;;5093591;28;20356;-87
2021/06/26 18:43:57;;;;;;;11.63;4.13;;;;;;;;;;5093644;28;20107;-87
2021/06/26 18:46:23;;;;;;;12.25;4.05;;;;;;;;;;5092324;28;20051;-86
2021/06/26 18:48:49;;;;;;;13.02;3.80;;;;;;;;;;5093404;28;20051;-87
2021/06/26 18:51:15;;;;;;;11.77;2.95;;;;;;;;;;5092515;28;20382;-87
2021/06/26 18:53:41;;;;;;;7.78;2.75;;;;;;;;;;5095287;28;20031;-85
2021/06/26 18:56:07;;;;;;;7.60;3.20;;;;;;;;;;5093960;28;20099;-86
2021/06/26 18:58:35;;;;;;;19.30;3.63;;;;;;;;;;5092701;28;20372;-86
2021/06/26 19:01:01;;;;;;;10.80;3.85;;;;;;;;;;5108270;28;20386;-86
2021/06/26 19:03:26;;;;;;;13.10;4.20;;;;;;;;;;5114154;28;20026;-86
2021/06/26 19:05:52;;;;;;;13.40;3.92;;;;;;;;;;5112982;28;20023;-84
2021/06/26 19:08:18;;;;;;;12.23;3.92;;;;;;;;;;5113639;28;20161;-86
2021/06/26 19:10:44;;;;;;;15.52;4.45;;;;;;;;;;5115319;28;20387;-88
2021/06/26 19:13:09;;;;;;;14.45;5.35;;;;;;;;;;5118446;28;20023;-87
2021/06/26 19:15:35;;;;;;;12.65;4.70;;;;;;;;;;5116723;28;20047;-89
2021/06/26 19:18:01;;;;;;;8.38;4.85;;;;;;;;;;5116576;28;20032;-88
2021/06/26 19:20:26;;;;;;;10.23;2.92;;;;;;;;;;5117553;28;20432;-87
2021/06/26 19:22:52;;;;;;;8.95;3.83;;;;;;;;;;5117740;28;20027;-86
2021/06/26 19:25:18;;;;;;;13.18;4.30;;;;;;;;;;5117990;28;20023;-87
2021/06/26 19:27:44;;;;;;;13.57;2.92;;;;;;;;;;5116512;28;20028;-87
2021/06/26 19:30:11;;;;;;;12.40;3.80;;;;;;;;;;5116362;28;20123;-86
2021/06/26 19:32:38;;;;;;;9.70;3.55;;;;;;;;;;5116687;28;20027;-87
2021/06/26 19:35:04;;;;;;;11.77;3.95;;;;;;;;;;5117841;28;20054;-88
2021/06/26 19:37:29;;;;;;;16.40;5.43;;;;;;;;;;5117507;28;20458;-86
2021/06/26 19:39:55;;;;;;;11.85;4.05;;;;;;;;;;5110783;28;20027;-86
2021/06/26 19:42:21;;;;;;;12.05;4.53;;;;;;;;;;5097159;28;20027;-87
2021/06/26 19:44:46;;;;;;;13.43;4.53;;;;;;;;;;5096967;28;20016;-86
2021/06/26 19:47:12;;;;;;;13.70;5.45;;;;;;;;;;5096950;28;20044;-85
2021/06/26 19:49:38;;;;;;;12.05;5.38;;;;;;;;;;5096455;28;20051;-86
2021/06/26 19:52:04;;;;;;;9.43;4.28;;;;;;;;;;5097009;28;20035;-86
2021/06/26 19:54:30;;;;;;;9.07;4.47;;;;;;;;;;5097047;28;20028;-88
2021/06/26 19:56:56;;;;;;;12.15;4.57;;;;;;;;;;5095423;28;20038;-87
2021/06/26 19:59:22;;;;;;;9.93;2.67;;;;;;;;;;5097046;28;20452;-88
2021/06/26 20:01:48;;;;;;;13.27;4.18;;;;;;;;;;5106180;28;20028;-88
2021/06/26 20:04:14;;;;;;;14.40;4.18;;;;;;;;;;5115998;28;20539;-88
2021/06/26 20:06:41;;;;;;;8.48;4.40;;;;;;;;;;5104679;28;20060;-88
2021/06/26 20:09:07;;;;;;;9.10;3.63;;;;;;;;;;5095455;28;20028;-87
2021/06/26 20:11:32;;;;;;;13.02;4.07;;;;;;;;;;5095235;28;20031;-86
2021/06/26 20:14:01;;;;;;;14.20;4.68;;;;;;;;;;5096619;28;20468;-87
2021/06/26 20:16:27;;;;;;;9.82;3.85;;;;;;;;;;5096424;28;20024;-87
2021/06/26 20:18:53;;;;;;;22.00;13.13;;;;;;;;;;5096410;28;20028;-86
2021/06/26 20:21:18;;;;;;;69.50;42.00;;;;;;;;;;5095959;28;20024;-87
2021/06/26 20:23:44;;;;;;;59.60;40.55;;;;;;;;;;5096437;28;20023;-86
2021/06/26 20:26:10;;;;;;;56.45;34.38;;;;;;;;;;5096371;28;20016;-86
2021/06/26 20:28:36;;;;;;;50.53;33.55;;;;;;;;;;5095502;28;20119;-86
2021/06/26 20:31:03;;;;;;;40.30;22.90;;;;;;;;;;5096305;28;20031;-86
2021/06/26 20:33:29;;;;;;;31.77;19.55;;;;;;;;;;5096635;28;20020;-86
2021/06/26 20:35:54;;;;;;;25.17;13.15;;;;;;;;;;5096002;28;20043;-86
2021/06/26 20:38:20;;;;;;;45.08;25.75;;;;;;;;;;5096372;28;20016;-87
2021/06/26 20:40:46;;;;;;;34.65;23.25;;;;;;;;;;5097460;28;20025;-86
2021/06/26 20:43:13;;;;;;;25.30;13.65;;;;;;;;;;5097280;28;20024;-86
2021/06/26 20:45:39;;;;;;;17.50;10.00;;;;;;;;;;5099530;28;20022;-87
2021/06/26 20:48:05;;;;;;;15.60;8.23;;;;;;;;;;5096325;28;20054;-88
2021/06/26 20:50:31;;;;;;;23.00;12.60;;;;;;;;;;5096060;28;20052;-88
2021/06/26 20:53:00;;;;;;;18.70;10.13;;;;;;;;;;5096624;28;20024;-88
2021/06/26 20:55:27;;;;;;;19.13;9.35;;;;;;;;;;5098640;28;20088;-88
2021/06/26 20:57:53;;;;;;;16.75;8.65;;;;;;;;;;5100726;28;20031;-89
2021/06/26 21:00:29;;;;;;;17.98;7.13;;;;;;;;;;5099815;28;20032;-88
2021/06/26 21:02:54;;;;;;;;;;;;;;;;;;5098472;28;20423;-86
2021/06/26 21:05:20;;;;;;;20.98;9.95;;;;;;;;;;5107785;28;19916;-89
2021/06/26 21:07:45;;;;;;;20.23;9.25;;;;;;;;;;5112532;28;20076;-88
2021/06/26 21:10:12;;;;;;;15.75;8.73;;;;;;;;;;5109102;28;20491;-87
2021/06/26 21:12:38;;;;;;;19.50;9.38;;;;;;;;;;5105349;28;20423;-90
2021/06/26 21:15:06;;;;;;;17.30;8.65;;;;;;;;;;5108142;28;20030;-85
2021/06/26 21:17:32;;;;;;;19.67;9.13;;;;;;;;;;5113656;28;20045;-87
2021/06/26 21:19:58;;;;;;;13.38;7.35;;;;;;;;;;5113093;28;20027;-85
2021/06/26 21:22:24;;;;;;;13.30;6.00;;;;;;;;;;5107813;28;20103;-87
2021/06/26 21:24:50;;;;;;;15.68;6.70;;;;;;;;;;5109082;28;20020;-88
2021/06/26 21:27:16;;;;;;;10.52;6.10;;;;;;;;;;5107285;28;20032;-85
2021/06/26 21:29:42;;;;;;;14.75;6.75;;;;;;;;;;5101101;28;20031;-87
2021/06/26 21:32:09;;;;;;;11.88;5.38;;;;;;;;;;5114677;28;20024;-85
2021/06/26 21:34:35;;;;;;;15.30;6.78;;;;;;;;;;5111002;28;20031;-83
2021/06/26 21:37:00;;;;;;;11.93;5.18;;;;;;;;;;5115995;28;20027;-82
2021/06/26 21:39:26;;;;;;;12.75;4.18;;;;;;;;;;5115885;27;20027;-82
2021/06/26 21:41:52;;;;;;;7.80;4.10;;;;;;;;;;5115729;28;20023;-84
2021/06/26 21:44:18;;;;;;;9.48;3.83;;;;;;;;;;5116206;28;20020;-82
2021/06/26 21:46:44;;;;;;;9.75;3.97;;;;;;;;;;5115766;28;20024;-82
2021/06/26 21:49:10;;;;;;;9.13;3.53;;;;;;;;;;5115966;28;20433;-83
2021/06/26 21:51:35;;;;;;;9.40;3.50;;;;;;;;;;5116442;28;20016;-82
2021/06/26 21:54:01;;;;;;;11.90;4.07;;;;;;;;;;5115334;28;20038;-83
2021/06/26 21:56:27;;;;;;;9.15;4.22;;;;;;;;;;5115358;28;20088;-82
2021/06/26 21:58:55;;;;;;;13.48;4.50;;;;;;;;;;5115150;28;20087;-83
2021/06/26 22:01:26;;;;;;;10.32;4.50;;;;;;;;;;5113904;28;20398;-83
2021/06/26 22:03:52;;;;;;;9.15;3.80;;;;;;;;;;5115335;28;20022;-83
2021/06/26 22:06:20;;;;;;;13.25;3.97;;;;;;;;;;5114819;28;20058;-82
2021/06/26 22:08:46;;;;;;;10.68;4.28;;;;;;;;;;5115092;28;20019;-82
2021/06/26 22:11:12;;;;;;;10.43;3.03;;;;;;;;;;5114784;28;20102;-83
2021/06/26 22:13:38;;;;;;;13.95;4.70;;;;;;;;;;5115787;28;20039;-83
2021/06/26 22:16:05;;;;;;;7.07;3.85;;;;;;;;;;5114950;28;20050;-84
2021/06/26 22:18:35;;;;;;;9.75;4.70;;;;;;;;;;5114896;28;20471;-84
2021/06/26 22:21:03;;;;;;;8.63;4.20;;;;;;;;;;5114726;28;20028;-83
2021/06/26 22:23:29;;;;;;;9.38;3.97;;;;;;;;;;5114697;28;20024;-84
2021/06/26 22:25:55;;;;;;;12.00;3.38;;;;;;;;;;5113909;28;20019;-83
2021/06/26 22:28:20;;;;;;;10.55;3.53;;;;;;;;;;5114703;28;20474;-83
2021/06/26 22:30:47;;;;;;;10.65;4.15;;;;;;;;;;5114200;28;20028;-82
2021/06/26 22:33:12;;;;;;;11.93;3.92;;;;;;;;;;5097068;28;20164;-83
2021/06/26 22:35:38;;;;;;;9.65;4.55;;;;;;;;;;5094088;28;20539;-84
2021/06/26 22:38:05;;;;;;;8.52;3.10;;;;;;;;;;5092602;28;20073;-82
2021/06/26 22:40:30;;;;;;;8.77;3.97;;;;;;;;;;5093961;28;20049;-82
2021/06/26 22:42:57;;;;;;;7.85;3.05;;;;;;;;;;5092530;28;20020;-83
2021/06/26 22:45:22;;;;;;;8.57;2.42;;;;;;;;;;5093881;28;20042;-83
2021/06/26 22:47:50;;;;;;;7.85;3.38;;;;;;;;;;5094174;28;20085;-83
2021/06/26 22:50:19;;;;;;;11.27;4.60;;;;;;;;;;5093525;28;20559;-83
2021/06/26 22:52:46;;;;;;;8.30;4.57;;;;;;;;;;5093813;28;20024;-83
2021/06/26 22:55:15;;;;;;;7.68;3.97;;;;;;;;;;5093984;28;20024;-84
2021/06/26 22:57:41;;;;;;;11.57;2.97;;;;;;;;;;5093776;28;20063;-82
2021/06/26 23:00:14;;;;;;;11.77;4.40;;;;;;;;;;5093925;28;20052;-82
2021/06/26 23:02:40;;;;;;;9.90;4.60;;;;;;;;;;5115164;28;20103;-83
2021/06/26 23:05:07;;;;;;;8.75;2.50;;;;;;;;;;5114651;28;20024;-83
2021/06/26 23:07:33;;;;;;;9.35;3.72;;;;;;;;;;5113634;28;20051;-82
2021/06/26 23:10:00;;;;;;;10.52;3.28;;;;;;;;;;5114083;28;20031;-83
2021/06/26 23:12:26;;;;;;;10.00;2.15;;;;;;;;;;5114161;28;20024;-82
2021/06/26 23:14:52;;;;;;;8.07;3.65;;;;;;;;;;5114122;28;20024;-83
2021/06/26 23:17:17;;;;;;;7.38;2.05;;;;;;;;;;5114374;28;20420;-83
2021/06/26 23:19:43;;;;;;;12.20;2.97;;;;;;;;;;5113944;28;20030;-82
2021/06/26 23:22:09;;;;;;;9.18;2.53;;;;;;;;;;5113905;28;20024;-82
2021/06/26 23:24:35;;;;;;;11.10;3.15;;;;;;;;;;5113398;28;20042;-83
2021/06/26 23:27:01;;;;;;;7.95;2.17;;;;;;;;;;5114404;28;20051;-83
2021/06/26 23:29:26;;;;;;;13.98;3.70;;;;;;;;;;5113970;28;20104;-83
2021/06/26 23:31:52;;;;;;;9.00;3.33;;;;;;;;;;5113885;28;20019;-82
2021/06/26 23:34:18;;;;;;;5.68;3.08;;;;;;;;;;5114007;28;20043;-83
2021/06/26 23:36:43;;;;;;;9.90;3.17;;;;;;;;;;5115550;28;20081;-82
2021/06/26 23:39:09;;;;;;;9.10;3.30;;;;;;;;;;5113107;28;20406;-82
2021/06/26 23:41:35;;;;;;;14.43;3.50;;;;;;;;;;5113654;28;20032;-82
2021/06/26 23:44:01;;;;;;;9.70;3.55;;;;;;;;;;5114317;28;20386;-82
2021/06/26 23:46:26;;;;;;;13.73;3.15;;;;;;;;;;5112305;28;20059;-83
2021/06/26 23:48:52;;;;;;;7.68;2.33;;;;;;;;;;5113599;28;20047;-83
2021/06/26 23:51:18;;;;;;;10.18;4.50;;;;;;;;;;5113702;28;20489;-83
2021/06/26 23:53:43;;;;;;;12.25;2.63;;;;;;;;;;5113722;28;20436;-83
2021/06/26 23:56:16;;;;;;;4.60;2.90;;;;;;;;;;5114986;28;20028;-82
2021/06/26 23:58:53;;;;;;;10.40;2.80;;;;;;;;;;5117534;28;20030;-83
